sensor_id;sensor_type;location;lat;lon;timestamp;P1;durP1;ratioP1;P2;durP2;ratioP2
37787;SDS011;23627;53.302;-6.362;2022-09-03T00:02:15;13.05;;;8.90;;
37787;SDS011;23627;53.302;-6.362;2022-09-03T00:04:50;10.95;;;7.72;;
37787;SDS011;23627;53.302;-6.362;2022-09-03T00:09:59;11.93;;;8.32;;
37787;SDS011;23627;53.302;-6.362;2022-09-03T00:12:33;11.65;;;7.38;;
37787;SDS011;23627;53.302;-6.362;2022-09-03T00:18:06;11.00;;;7.57;;
37787;SDS011;23627;53.302;-6.362;2022-09-03T00:20:32;12.20;;;7.80;;
37787;SDS011;23627;53.302;-6.362;2022-09-03T00:23:18;10.80;;;7.45;;
37787;SDS011;23627;53.302;-6.362;2022-09-03T00:25:55;11.23;;;6.68;;
37787;SDS011;23627;53.302;-6.362;2022-09-03T00:28:27;11.13;;;7.15;;
37787;SDS011;23627;53.302;-6.362;2022-09-03T00:33:48;10.65;;;6.25;;
37787;SDS011;23627;53.302;-6.362;2022-09-03T00:36:22;9.85;;;6.32;;
37787;SDS011;23627;53.302;-6.362;2022-09-03T00:38:58;10.20;;;6.40;;
37787;SDS011;23627;53.302;-6.362;2022-09-03T00:41:37;8.38;;;6.28;;
37787;SDS011;23627;53.302;-6.362;2022-09-03T00:46:52;12.57;;;8.05;;
37787;SDS011;23627;53.302;-6.362;2022-09-03T00:52:17;13.38;;;9.48;;
37787;SDS011;23627;53.302;-6.362;2022-09-03T00:55:15;11.95;;;9.05;;
37787;SDS011;23627;53.302;-6.362;2022-09-03T01:00:58;16.25;;;10.52;;
37787;SDS011;23627;53.302;-6.362;2022-09-03T01:06:07;12.57;;;8.52;;
37787;SDS011;23627;53.302;-6.362;2022-09-03T01:17:44;11.32;;;8.18;;
37787;SDS011;23627;53.302;-6.362;2022-09-03T01:25:31;12.63;;;8.15;;
37787;SDS011;23627;53.302;-6.362;2022-09-03T01:28:34;11.70;;;8.23;;
37787;SDS011;23627;53.302;-6.362;2022-09-03T01:36:55;9.85;;;6.63;;
37787;SDS011;23627;53.302;-6.362;2022-09-03T01:39:54;6.65;;;4.70;;
37787;SDS011;23627;53.302;-6.362;2022-09-03T01:45:54;8.43;;;4.85;;
37787;SDS011;23627;53.302;-6.362;2022-09-03T01:51:20;7.30;;;4.55;;
37787;SDS011;23627;53.302;-6.362;2022-09-03T01:57:06;5.40;;;2.90;;
37787;SDS011;23627;53.302;-6.362;2022-09-03T02:02:14;3.92;;;2.42;;
37787;SDS011;23627;53.302;-6.362;2022-09-03T02:04:59;3.58;;;2.00;;
37787;SDS011;23627;53.302;-6.362;2022-09-03T02:07:44;4.05;;;2.90;;
37787;SDS011;23627;53.302;-6.362;2022-09-03T02:10:32;4.43;;;2.80;;
37787;SDS011;23627;53.302;-6.362;2022-09-03T02:15:48;3.30;;;2.35;;
37787;SDS011;23627;53.302;-6.362;2022-09-03T02:18:26;2.65;;;1.65;;
37787;SDS011;23627;53.302;-6.362;2022-09-03T02:20:55;3.15;;;1.95;;
37787;SDS011;23627;53.302;-6.362;2022-09-03T02:23:24;2.75;;;1.80;;
37787;SDS011;23627;53.302;-6.362;2022-09-03T02:25:54;3.67;;;2.38;;
37787;SDS011;23627;53.302;-6.362;2022-09-03T02:28:21;2.70;;;1.70;;
37787;SDS011;23627;53.302;-6.362;2022-09-03T02:30:48;3.38;;;1.98;;
37787;SDS011;23627;53.302;-6.362;2022-09-03T02:33:15;2.40;;;1.80;;
37787;SDS011;23627;53.302;-6.362;2022-09-03T02:35:41;2.97;;;2.00;;
37787;SDS011;23627;53.302;-6.362;2022-09-03T02:38:11;2.95;;;1.60;;
37787;SDS011;23627;53.302;-6.362;2022-09-03T02:40:38;2.40;;;1.60;;
37787;SDS011;23627;53.302;-6.362;2022-09-03T02:43:04;3.25;;;1.90;;
37787;SDS011;23627;53.302;-6.362;2022-09-03T02:45:32;2.55;;;1.40;;
37787;SDS011;23627;53.302;-6.362;2022-09-03T02:48:00;3.00;;;1.63;;
37787;SDS011;23627;53.302;-6.362;2022-09-03T02:50:26;2.40;;;1.42;;
37787;SDS011;23627;53.302;-6.362;2022-09-03T02:52:52;3.08;;;1.58;;
37787;SDS011;23627;53.302;-6.362;2022-09-03T02:55:18;2.20;;;1.00;;
37787;SDS011;23627;53.302;-6.362;2022-09-03T02:57:44;1.88;;;1.20;;
37787;SDS011;23627;53.302;-6.362;2022-09-03T03:00:10;2.15;;;1.42;;
37787;SDS011;23627;53.302;-6.362;2022-09-03T03:02:37;2.00;;;1.20;;
37787;SDS011;23627;53.302;-6.362;2022-09-03T03:05:03;2.65;;;1.30;;
37787;SDS011;23627;53.302;-6.362;2022-09-03T03:07:33;2.17;;;1.33;;
37787;SDS011;23627;53.302;-6.362;2022-09-03T03:10:02;1.95;;;1.17;;
37787;SDS011;23627;53.302;-6.362;2022-09-03T03:12:28;1.20;;;0.93;;
37787;SDS011;23627;53.302;-6.362;2022-09-03T03:14:54;1.67;;;0.90;;
37787;SDS011;23627;53.302;-6.362;2022-09-03T03:17:20;2.83;;;0.90;;
37787;SDS011;23627;53.302;-6.362;2022-09-03T03:19:46;2.97;;;1.33;;
37787;SDS011;23627;53.302;-6.362;2022-09-03T03:22:13;1.77;;;0.85;;
37787;SDS011;23627;53.302;-6.362;2022-09-03T03:24:38;1.42;;;1.00;;
37787;SDS011;23627;53.302;-6.362;2022-09-03T03:27:04;2.83;;;1.10;;
37787;SDS011;23627;53.302;-6.362;2022-09-03T03:29:32;1.58;;;1.00;;
37787;SDS011;23627;53.302;-6.362;2022-09-03T03:31:58;1.83;;;0.90;;
37787;SDS011;23627;53.302;-6.362;2022-09-03T03:34:23;2.03;;;0.98;;
37787;SDS011;23627;53.302;-6.362;2022-09-03T03:36:49;1.92;;;1.00;;
37787;SDS011;23627;53.302;-6.362;2022-09-03T03:39:15;1.27;;;0.80;;
37787;SDS011;23627;53.302;-6.362;2022-09-03T03:41:40;2.63;;;0.90;;
37787;SDS011;23627;53.302;-6.362;2022-09-03T03:44:06;1.88;;;0.70;;
37787;SDS011;23627;53.302;-6.362;2022-09-03T03:46:34;1.33;;;0.80;;
37787;SDS011;23627;53.302;-6.362;2022-09-03T03:49:04;1.90;;;1.02;;
37787;SDS011;23627;53.302;-6.362;2022-09-03T03:51:30;1.15;;;0.90;;
37787;SDS011;23627;53.302;-6.362;2022-09-03T03:53:57;1.42;;;0.60;;
37787;SDS011;23627;53.302;-6.362;2022-09-03T03:56:23;0.88;;;0.70;;
37787;SDS011;23627;53.302;-6.362;2022-09-03T03:58:50;1.30;;;0.70;;
37787;SDS011;23627;53.302;-6.362;2022-09-03T04:01:18;1.30;;;0.68;;
37787;SDS011;23627;53.302;-6.362;2022-09-03T04:03:48;1.65;;;0.70;;
37787;SDS011;23627;53.302;-6.362;2022-09-03T04:06:15;2.50;;;0.70;;
37787;SDS011;23627;53.302;-6.362;2022-09-03T04:08:44;2.20;;;0.60;;
37787;SDS011;23627;53.302;-6.362;2022-09-03T04:11:11;1.45;;;0.60;;
37787;SDS011;23627;53.302;-6.362;2022-09-03T04:13:42;1.30;;;0.60;;
37787;SDS011;23627;53.302;-6.362;2022-09-03T04:16:10;1.30;;;0.60;;
37787;SDS011;23627;53.302;-6.362;2022-09-03T04:18:42;1.75;;;0.75;;
37787;SDS011;23627;53.302;-6.362;2022-09-03T04:21:13;1.02;;;0.60;;
37787;SDS011;23627;53.302;-6.362;2022-09-03T04:23:41;1.50;;;0.70;;
37787;SDS011;23627;53.302;-6.362;2022-09-03T04:26:10;1.70;;;0.60;;
37787;SDS011;23627;53.302;-6.362;2022-09-03T04:28:37;0.70;;;0.50;;
37787;SDS011;23627;53.302;-6.362;2022-09-03T04:31:04;1.00;;;0.50;;
37787;SDS011;23627;53.302;-6.362;2022-09-03T04:33:32;1.50;;;0.70;;
37787;SDS011;23627;53.302;-6.362;2022-09-03T04:36:03;1.35;;;0.60;;
37787;SDS011;23627;53.302;-6.362;2022-09-03T04:38:34;1.63;;;0.60;;
37787;SDS011;23627;53.302;-6.362;2022-09-03T04:41:01;1.20;;;0.70;;
37787;SDS011;23627;53.302;-6.362;2022-09-03T04:43:28;1.05;;;0.73;;
37787;SDS011;23627;53.302;-6.362;2022-09-03T04:45:55;1.55;;;0.75;;
37787;SDS011;23627;53.302;-6.362;2022-09-03T04:48:22;1.50;;;0.60;;
37787;SDS011;23627;53.302;-6.362;2022-09-03T04:50:48;0.85;;;0.55;;
37787;SDS011;23627;53.302;-6.362;2022-09-03T04:53:14;1.10;;;0.70;;
37787;SDS011;23627;53.302;-6.362;2022-09-03T04:55:40;1.33;;;0.65;;
37787;SDS011;23627;53.302;-6.362;2022-09-03T04:58:05;1.10;;;0.57;;
37787;SDS011;23627;53.302;-6.362;2022-09-03T05:00:35;1.15;;;0.52;;
37787;SDS011;23627;53.302;-6.362;2022-09-03T05:03:01;1.15;;;0.60;;
37787;SDS011;23627;53.302;-6.362;2022-09-03T05:05:29;1.38;;;0.60;;
37787;SDS011;23627;53.302;-6.362;2022-09-03T05:07:58;1.38;;;0.70;;
37787;SDS011;23627;53.302;-6.362;2022-09-03T05:10:25;1.25;;;0.60;;
37787;SDS011;23627;53.302;-6.362;2022-09-03T05:13:01;1.30;;;0.60;;
37787;SDS011;23627;53.302;-6.362;2022-09-03T05:15:29;0.93;;;0.60;;
37787;SDS011;23627;53.302;-6.362;2022-09-03T05:18:00;1.48;;;0.60;;
37787;SDS011;23627;53.302;-6.362;2022-09-03T05:20:26;1.35;;;0.50;;
37787;SDS011;23627;53.302;-6.362;2022-09-03T05:22:54;0.73;;;0.40;;
37787;SDS011;23627;53.302;-6.362;2022-09-03T05:25:21;0.82;;;0.50;;
37787;SDS011;23627;53.302;-6.362;2022-09-03T05:27:48;0.70;;;0.50;;
37787;SDS011;23627;53.302;-6.362;2022-09-03T05:30:13;1.02;;;0.55;;
37787;SDS011;23627;53.302;-6.362;2022-09-03T05:32:40;1.02;;;0.50;;
37787;SDS011;23627;53.302;-6.362;2022-09-03T05:35:06;0.77;;;0.47;;
37787;SDS011;23627;53.302;-6.362;2022-09-03T05:37:34;0.85;;;0.50;;
37787;SDS011;23627;53.302;-6.362;2022-09-03T05:40:01;0.65;;;0.40;;
37787;SDS011;23627;53.302;-6.362;2022-09-03T05:42:27;0.70;;;0.40;;
37787;SDS011;23627;53.302;-6.362;2022-09-03T05:44:55;0.80;;;0.50;;
37787;SDS011;23627;53.302;-6.362;2022-09-03T05:47:21;0.75;;;0.50;;
37787;SDS011;23627;53.302;-6.362;2022-09-03T05:49:47;1.00;;;0.35;;
37787;SDS011;23627;53.302;-6.362;2022-09-03T05:52:12;0.77;;;0.50;;
37787;SDS011;23627;53.302;-6.362;2022-09-03T05:54:38;1.00;;;0.50;;
37787;SDS011;23627;53.302;-6.362;2022-09-03T05:57:04;1.42;;;0.30;;
37787;SDS011;23627;53.302;-6.362;2022-09-03T05:59:30;0.77;;;0.52;;
37787;SDS011;23627;53.302;-6.362;2022-09-03T06:01:55;0.82;;;0.45;;
37787;SDS011;23627;53.302;-6.362;2022-09-03T06:04:21;1.55;;;0.50;;
37787;SDS011;23627;53.302;-6.362;2022-09-03T06:06:47;1.05;;;0.50;;
37787;SDS011;23627;53.302;-6.362;2022-09-03T06:09:17;0.98;;;0.60;;
37787;SDS011;23627;53.302;-6.362;2022-09-03T06:11:44;1.23;;;0.60;;
37787;SDS011;23627;53.302;-6.362;2022-09-03T06:14:11;0.85;;;0.60;;
37787;SDS011;23627;53.302;-6.362;2022-09-03T06:16:38;1.10;;;0.57;;
37787;SDS011;23627;53.302;-6.362;2022-09-03T06:19:06;1.10;;;0.60;;
37787;SDS011;23627;53.302;-6.362;2022-09-03T06:21:35;1.45;;;0.50;;
37787;SDS011;23627;53.302;-6.362;2022-09-03T06:24:04;1.08;;;0.60;;
37787;SDS011;23627;53.302;-6.362;2022-09-03T06:26:30;1.33;;;0.63;;
37787;SDS011;23627;53.302;-6.362;2022-09-03T06:28:56;0.80;;;0.52;;
37787;SDS011;23627;53.302;-6.362;2022-09-03T06:31:24;1.13;;;0.52;;
37787;SDS011;23627;53.302;-6.362;2022-09-03T06:33:50;1.15;;;0.65;;
37787;SDS011;23627;53.302;-6.362;2022-09-03T06:36:18;1.25;;;0.60;;
37787;SDS011;23627;53.302;-6.362;2022-09-03T06:38:46;0.80;;;0.50;;
37787;SDS011;23627;53.302;-6.362;2022-09-03T06:41:16;0.95;;;0.60;;
37787;SDS011;23627;53.302;-6.362;2022-09-03T06:43:48;0.80;;;0.40;;
37787;SDS011;23627;53.302;-6.362;2022-09-03T06:46:15;0.90;;;0.60;;
37787;SDS011;23627;53.302;-6.362;2022-09-03T06:48:43;1.00;;;0.55;;
37787;SDS011;23627;53.302;-6.362;2022-09-03T06:51:11;0.90;;;0.60;;
37787;SDS011;23627;53.302;-6.362;2022-09-03T06:53:39;1.70;;;0.73;;
37787;SDS011;23627;53.302;-6.362;2022-09-03T06:56:08;0.52;;;0.38;;
37787;SDS011;23627;53.302;-6.362;2022-09-03T06:58:39;1.30;;;0.60;;
37787;SDS011;23627;53.302;-6.362;2022-09-03T07:01:11;0.80;;;0.50;;
37787;SDS011;23627;53.302;-6.362;2022-09-03T07:03:39;1.20;;;0.50;;
37787;SDS011;23627;53.302;-6.362;2022-09-03T07:06:07;1.55;;;0.70;;
37787;SDS011;23627;53.302;-6.362;2022-09-03T07:08:35;1.08;;;0.60;;
37787;SDS011;23627;53.302;-6.362;2022-09-03T07:11:02;0.90;;;0.40;;
37787;SDS011;23627;53.302;-6.362;2022-09-03T07:13:33;1.02;;;0.63;;
37787;SDS011;23627;53.302;-6.362;2022-09-03T07:16:07;1.02;;;0.40;;
37787;SDS011;23627;53.302;-6.362;2022-09-03T07:18:34;0.77;;;0.60;;
37787;SDS011;23627;53.302;-6.362;2022-09-03T07:21:01;0.82;;;0.50;;
37787;SDS011;23627;53.302;-6.362;2022-09-03T07:23:29;1.10;;;0.57;;
37787;SDS011;23627;53.302;-6.362;2022-09-03T07:25:56;0.82;;;0.55;;
37787;SDS011;23627;53.302;-6.362;2022-09-03T07:28:29;1.17;;;0.68;;
37787;SDS011;23627;53.302;-6.362;2022-09-03T07:33:35;2.22;;;0.80;;
37787;SDS011;23627;53.302;-6.362;2022-09-03T07:36:08;1.20;;;0.63;;
37787;SDS011;23627;53.302;-6.362;2022-09-03T07:38:36;2.13;;;0.80;;
37787;SDS011;23627;53.302;-6.362;2022-09-03T07:41:06;2.30;;;0.95;;
37787;SDS011;23627;53.302;-6.362;2022-09-03T07:43:37;1.70;;;1.02;;
37787;SDS011;23627;53.302;-6.362;2022-09-03T07:46:05;1.60;;;0.93;;
37787;SDS011;23627;53.302;-6.362;2022-09-03T07:48:32;2.78;;;0.70;;
37787;SDS011;23627;53.302;-6.362;2022-09-03T07:50:58;2.90;;;1.13;;
37787;SDS011;23627;53.302;-6.362;2022-09-03T07:53:25;1.67;;;0.98;;
37787;SDS011;23627;53.302;-6.362;2022-09-03T07:55:52;1.77;;;0.90;;
37787;SDS011;23627;53.302;-6.362;2022-09-03T07:58:24;6.10;;;2.97;;
37787;SDS011;23627;53.302;-6.362;2022-09-03T08:00:53;11.65;;;8.45;;
37787;SDS011;23627;53.302;-6.362;2022-09-03T08:03:21;15.68;;;11.38;;
37787;SDS011;23627;53.302;-6.362;2022-09-03T08:05:47;6.63;;;4.15;;
37787;SDS011;23627;53.302;-6.362;2022-09-03T08:08:13;12.82;;;8.27;;
37787;SDS011;23627;53.302;-6.362;2022-09-03T08:10:39;6.32;;;4.10;;
37787;SDS011;23627;53.302;-6.362;2022-09-03T08:13:05;4.60;;;2.55;;
37787;SDS011;23627;53.302;-6.362;2022-09-03T08:15:31;2.15;;;1.67;;
37787;SDS011;23627;53.302;-6.362;2022-09-03T08:17:58;3.40;;;1.90;;
37787;SDS011;23627;53.302;-6.362;2022-09-03T08:20:25;1.88;;;1.15;;
37787;SDS011;23627;53.302;-6.362;2022-09-03T08:22:52;3.40;;;1.38;;
37787;SDS011;23627;53.302;-6.362;2022-09-03T08:25:24;1.60;;;1.05;;
37787;SDS011;23627;53.302;-6.362;2022-09-03T08:27:50;1.95;;;1.27;;
37787;SDS011;23627;53.302;-6.362;2022-09-03T08:30:16;2.05;;;1.05;;
37787;SDS011;23627;53.302;-6.362;2022-09-03T08:32:43;2.83;;;0.90;;
37787;SDS011;23627;53.302;-6.362;2022-09-03T08:35:09;2.30;;;1.02;;
37787;SDS011;23627;53.302;-6.362;2022-09-03T08:37:34;3.83;;;1.10;;
37787;SDS011;23627;53.302;-6.362;2022-09-03T08:40:00;2.00;;;1.23;;
37787;SDS011;23627;53.302;-6.362;2022-09-03T08:42:35;2.30;;;1.20;;
37787;SDS011;23627;53.302;-6.362;2022-09-03T08:45:12;2.05;;;1.20;;
37787;SDS011;23627;53.302;-6.362;2022-09-03T08:47:54;3.22;;;1.00;;
37787;SDS011;23627;53.302;-6.362;2022-09-03T09:00:21;3.17;;;1.42;;
37787;SDS011;23627;53.302;-6.362;2022-09-03T09:05:44;2.28;;;0.90;;
37787;SDS011;23627;53.302;-6.362;2022-09-03T09:11:23;2.85;;;1.73;;
37787;SDS011;23627;53.302;-6.362;2022-09-03T09:16:30;2.92;;;1.73;;
37787;SDS011;23627;53.302;-6.362;2022-09-03T09:19:09;2.20;;;1.40;;
37787;SDS011;23627;53.302;-6.362;2022-09-03T09:22:02;1.48;;;0.90;;
37787;SDS011;23627;53.302;-6.362;2022-09-03T09:24:42;3.13;;;1.30;;
37787;SDS011;23627;53.302;-6.362;2022-09-03T09:27:12;2.63;;;1.50;;
37787;SDS011;23627;53.302;-6.362;2022-09-03T09:29:41;2.17;;;1.10;;
37787;SDS011;23627;53.302;-6.362;2022-09-03T09:32:11;2.55;;;1.40;;
37787;SDS011;23627;53.302;-6.362;2022-09-03T09:34:41;2.03;;;1.20;;
37787;SDS011;23627;53.302;-6.362;2022-09-03T09:37:09;1.98;;;1.27;;
37787;SDS011;23627;53.302;-6.362;2022-09-03T09:39:40;2.92;;;1.55;;
37787;SDS011;23627;53.302;-6.362;2022-09-03T09:42:19;3.28;;;1.33;;
37787;SDS011;23627;53.302;-6.362;2022-09-03T09:44:46;3.33;;;1.80;;
37787;SDS011;23627;53.302;-6.362;2022-09-03T09:50:03;3.28;;;1.30;;
37787;SDS011;23627;53.302;-6.362;2022-09-03T09:52:42;3.83;;;1.60;;
37787;SDS011;23627;53.302;-6.362;2022-09-03T09:55:18;2.97;;;1.73;;
37787;SDS011;23627;53.302;-6.362;2022-09-03T09:57:47;2.20;;;1.13;;
37787;SDS011;23627;53.302;-6.362;2022-09-03T10:00:18;3.53;;;1.55;;
37787;SDS011;23627;53.302;-6.362;2022-09-03T10:02:51;2.72;;;1.50;;
37787;SDS011;23627;53.302;-6.362;2022-09-03T10:05:23;2.65;;;1.42;;
37787;SDS011;23627;53.302;-6.362;2022-09-03T10:07:55;2.90;;;1.80;;
37787;SDS011;23627;53.302;-6.362;2022-09-03T10:10:22;3.10;;;1.67;;
37787;SDS011;23627;53.302;-6.362;2022-09-03T10:15:38;2.95;;;1.90;;
37787;SDS011;23627;53.302;-6.362;2022-09-03T10:18:37;3.92;;;1.83;;
37787;SDS011;23627;53.302;-6.362;2022-09-03T10:21:13;4.55;;;2.22;;
37787;SDS011;23627;53.302;-6.362;2022-09-03T10:24:26;4.40;;;2.40;;
37787;SDS011;23627;53.302;-6.362;2022-09-03T10:26:39;4.45;;;2.05;;
37787;SDS011;23627;53.302;-6.362;2022-09-03T10:29:12;4.40;;;2.55;;
37787;SDS011;23627;53.302;-6.362;2022-09-03T10:35:30;4.53;;;2.80;;
37787;SDS011;23627;53.302;-6.362;2022-09-03T10:48:40;2.97;;;1.80;;
37787;SDS011;23627;53.302;-6.362;2022-09-03T10:59:28;2.42;;;1.70;;
37787;SDS011;23627;53.302;-6.362;2022-09-03T11:05:21;2.08;;;1.52;;
37787;SDS011;23627;53.302;-6.362;2022-09-03T11:08:17;1.90;;;1.23;;
37787;SDS011;23627;53.302;-6.362;2022-09-03T11:10:51;2.83;;;1.25;;
37787;SDS011;23627;53.302;-6.362;2022-09-03T11:13:22;2.38;;;1.38;;
37787;SDS011;23627;53.302;-6.362;2022-09-03T11:16:16;2.20;;;1.10;;
37787;SDS011;23627;53.302;-6.362;2022-09-03T11:18:54;1.90;;;1.25;;
37787;SDS011;23627;53.302;-6.362;2022-09-03T11:21:25;3.00;;;1.10;;
37787;SDS011;23627;53.302;-6.362;2022-09-03T11:24:13;2.83;;;1.00;;
37787;SDS011;23627;53.302;-6.362;2022-09-03T11:26:47;1.40;;;0.90;;
37787;SDS011;23627;53.302;-6.362;2022-09-03T11:29:40;2.13;;;1.00;;
37787;SDS011;23627;53.302;-6.362;2022-09-03T11:34:59;2.10;;;0.90;;
37787;SDS011;23627;53.302;-6.362;2022-09-03T11:37:26;1.75;;;0.90;;
37787;SDS011;23627;53.302;-6.362;2022-09-03T11:39:58;1.50;;;0.90;;
37787;SDS011;23627;53.302;-6.362;2022-09-03T11:42:33;1.50;;;0.90;;
37787;SDS011;23627;53.302;-6.362;2022-09-03T11:46:00;1.00;;;0.80;;
37787;SDS011;23627;53.302;-6.362;2022-09-03T11:48:00;1.65;;;0.82;;
37787;SDS011;23627;53.302;-6.362;2022-09-03T11:50:27;1.52;;;0.80;;
37787;SDS011;23627;53.302;-6.362;2022-09-03T11:53:08;1.48;;;0.80;;
37787;SDS011;23627;53.302;-6.362;2022-09-03T11:58:37;1.55;;;0.60;;
37787;SDS011;23627;53.302;-6.362;2022-09-03T12:01:09;1.58;;;0.70;;
37787;SDS011;23627;53.302;-6.362;2022-09-03T12:10:34;2.38;;;0.80;;
37787;SDS011;23627;53.302;-6.362;2022-09-03T12:20:10;2.10;;;0.95;;
37787;SDS011;23627;53.302;-6.362;2022-09-03T12:22:39;1.27;;;0.80;;
37787;SDS011;23627;53.302;-6.362;2022-09-03T12:27:44;1.38;;;0.70;;
37787;SDS011;23627;53.302;-6.362;2022-09-03T12:33:01;1.25;;;0.80;;
37787;SDS011;23627;53.302;-6.362;2022-09-03T12:35:31;1.65;;;0.75;;
37787;SDS011;23627;53.302;-6.362;2022-09-03T12:37:57;1.58;;;0.85;;
37787;SDS011;23627;53.302;-6.362;2022-09-03T12:40:28;1.35;;;0.80;;
37787;SDS011;23627;53.302;-6.362;2022-09-03T12:42:54;1.67;;;0.73;;
37787;SDS011;23627;53.302;-6.362;2022-09-03T12:45:40;1.13;;;0.75;;
37787;SDS011;23627;53.302;-6.362;2022-09-03T12:48:15;2.47;;;1.80;;
37787;SDS011;23627;53.302;-6.362;2022-09-03T12:50:42;2.00;;;1.45;;
37787;SDS011;23627;53.302;-6.362;2022-09-03T12:53:23;2.03;;;1.10;;
37787;SDS011;23627;53.302;-6.362;2022-09-03T12:55:51;1.00;;;0.80;;
37787;SDS011;23627;53.302;-6.362;2022-09-03T12:58:24;1.50;;;0.90;;
37787;SDS011;23627;53.302;-6.362;2022-09-03T13:01:06;2.20;;;1.05;;
37787;SDS011;23627;53.302;-6.362;2022-09-03T13:06:13;3.10;;;1.35;;
37787;SDS011;23627;53.302;-6.362;2022-09-03T13:08:44;1.05;;;0.77;;
37787;SDS011;23627;53.302;-6.362;2022-09-03T13:11:18;1.85;;;1.17;;
37787;SDS011;23627;53.302;-6.362;2022-09-03T13:33:27;2.45;;;1.30;;
37787;SDS011;23627;53.302;-6.362;2022-09-03T13:36:23;3.00;;;1.70;;
37787;SDS011;23627;53.302;-6.362;2022-09-03T13:38:54;2.10;;;1.50;;
37787;SDS011;23627;53.302;-6.362;2022-09-03T13:44:31;1.50;;;1.10;;
37787;SDS011;23627;53.302;-6.362;2022-09-03T13:49:52;1.95;;;1.00;;
37787;SDS011;23627;53.302;-6.362;2022-09-03T13:58:24;3.13;;;2.60;;
37787;SDS011;23627;53.302;-6.362;2022-09-03T14:03:37;1.63;;;1.10;;
37787;SDS011;23627;53.302;-6.362;2022-09-03T14:06:17;1.85;;;1.00;;
37787;SDS011;23627;53.302;-6.362;2022-09-03T14:14:43;1.90;;;1.00;;
37787;SDS011;23627;53.302;-6.362;2022-09-03T14:26:16;1.83;;;0.60;;
37787;SDS011;23627;53.302;-6.362;2022-09-03T14:28:57;0.95;;;0.40;;
37787;SDS011;23627;53.302;-6.362;2022-09-03T14:31:37;1.20;;;0.50;;
37787;SDS011;23627;53.302;-6.362;2022-09-03T14:37:05;0.93;;;0.35;;
37787;SDS011;23627;53.302;-6.362;2022-09-03T14:42:44;0.80;;;0.50;;
37787;SDS011;23627;53.302;-6.362;2022-09-03T14:45:14;1.77;;;0.70;;
37787;SDS011;23627;53.302;-6.362;2022-09-03T14:53:26;0.93;;;0.50;;
37787;SDS011;23627;53.302;-6.362;2022-09-03T15:13:23;0.75;;;0.38;;
37787;SDS011;23627;53.302;-6.362;2022-09-03T15:24:39;1.48;;;0.60;;
37787;SDS011;23627;53.302;-6.362;2022-09-03T15:30:10;2.05;;;0.60;;
37787;SDS011;23627;53.302;-6.362;2022-09-03T15:32:45;1.40;;;0.50;;
37787;SDS011;23627;53.302;-6.362;2022-09-03T15:43:21;1.50;;;0.57;;
37787;SDS011;23627;53.302;-6.362;2022-09-03T15:45:55;1.30;;;0.55;;
37787;SDS011;23627;53.302;-6.362;2022-09-03T15:51:25;2.10;;;0.82;;
37787;SDS011;23627;53.302;-6.362;2022-09-03T15:53:54;2.65;;;0.70;;
37787;SDS011;23627;53.302;-6.362;2022-09-03T15:56:34;1.80;;;0.60;;
37787;SDS011;23627;53.302;-6.362;2022-09-03T15:59:15;2.00;;;1.10;;
37787;SDS011;23627;53.302;-6.362;2022-09-03T16:02:02;2.45;;;0.80;;
37787;SDS011;23627;53.302;-6.362;2022-09-03T16:04:51;1.40;;;0.68;;
37787;SDS011;23627;53.302;-6.362;2022-09-03T16:10:11;1.80;;;0.90;;
37787;SDS011;23627;53.302;-6.362;2022-09-03T16:12:46;1.50;;;0.65;;
37787;SDS011;23627;53.302;-6.362;2022-09-03T16:15:24;0.85;;;0.60;;
37787;SDS011;23627;53.302;-6.362;2022-09-03T16:18:03;1.45;;;0.70;;
37787;SDS011;23627;53.302;-6.362;2022-09-03T16:20:55;1.55;;;0.60;;
37787;SDS011;23627;53.302;-6.362;2022-09-03T16:26:33;1.52;;;0.65;;
37787;SDS011;23627;53.302;-6.362;2022-09-03T16:29:10;1.35;;;0.60;;
37787;SDS011;23627;53.302;-6.362;2022-09-03T16:47:58;1.40;;;0.30;;
37787;SDS011;23627;53.302;-6.362;2022-09-03T17:05:19;2.25;;;0.30;;
37787;SDS011;23627;53.302;-6.362;2022-09-03T17:21:38;1.30;;;0.52;;
37787;SDS011;23627;53.302;-6.362;2022-09-03T17:27:11;2.85;;;1.00;;
37787;SDS011;23627;53.302;-6.362;2022-09-03T17:46:16;2.35;;;0.40;;
37787;SDS011;23627;53.302;-6.362;2022-09-03T17:48:53;1.27;;;0.30;;
37787;SDS011;23627;53.302;-6.362;2022-09-03T17:57:31;1.35;;;0.40;;
37787;SDS011;23627;53.302;-6.362;2022-09-03T18:00:10;2.10;;;0.40;;
37787;SDS011;23627;53.302;-6.362;2022-09-03T18:10:41;3.17;;;0.40;;
37787;SDS011;23627;53.302;-6.362;2022-09-03T18:16:25;2.42;;;0.40;;
37787;SDS011;23627;53.302;-6.362;2022-09-03T18:21:59;1.05;;;0.40;;
37787;SDS011;23627;53.302;-6.362;2022-09-03T18:24:53;1.15;;;0.75;;
37787;SDS011;23627;53.302;-6.362;2022-09-03T18:27:44;1.25;;;0.28;;
37787;SDS011;23627;53.302;-6.362;2022-09-03T18:30:36;1.20;;;0.28;;
37787;SDS011;23627;53.302;-6.362;2022-09-03T18:33:24;3.58;;;0.82;;
37787;SDS011;23627;53.302;-6.362;2022-09-03T18:36:10;1.80;;;0.35;;
37787;SDS011;23627;53.302;-6.362;2022-09-03T18:39:14;0.73;;;0.43;;
37787;SDS011;23627;53.302;-6.362;2022-09-03T18:45:34;1.05;;;0.30;;
37787;SDS011;23627;53.302;-6.362;2022-09-03T18:48:41;1.52;;;0.40;;
37787;SDS011;23627;53.302;-6.362;2022-09-03T18:51:53;1.73;;;0.40;;
37787;SDS011;23627;53.302;-6.362;2022-09-03T18:57:59;1.02;;;0.30;;
37787;SDS011;23627;53.302;-6.362;2022-09-03T19:00:58;1.20;;;0.25;;
37787;SDS011;23627;53.302;-6.362;2022-09-03T19:03:53;0.38;;;0.20;;
37787;SDS011;23627;53.302;-6.362;2022-09-03T19:07:01;0.88;;;0.22;;
37787;SDS011;23627;53.302;-6.362;2022-09-03T19:19:41;0.93;;;0.30;;
37787;SDS011;23627;53.302;-6.362;2022-09-03T19:22:36;0.60;;;0.20;;
37787;SDS011;23627;53.302;-6.362;2022-09-03T19:25:28;1.02;;;0.50;;
37787;SDS011;23627;53.302;-6.362;2022-09-03T19:28:17;2.63;;;0.50;;
37787;SDS011;23627;53.302;-6.362;2022-09-03T19:31:08;0.82;;;0.30;;
37787;SDS011;23627;53.302;-6.362;2022-09-03T19:37:05;0.55;;;0.28;;
37787;SDS011;23627;53.302;-6.362;2022-09-03T19:43:55;0.65;;;0.20;;
37787;SDS011;23627;53.302;-6.362;2022-09-03T19:52:58;0.88;;;0.30;;
37787;SDS011;23627;53.302;-6.362;2022-09-03T19:55:48;1.02;;;0.50;;
37787;SDS011;23627;53.302;-6.362;2022-09-03T19:58:44;0.47;;;0.28;;
37787;SDS011;23627;53.302;-6.362;2022-09-03T20:01:37;0.47;;;0.30;;
37787;SDS011;23627;53.302;-6.362;2022-09-03T20:04:30;0.65;;;0.22;;
37787;SDS011;23627;53.302;-6.362;2022-09-03T20:07:17;0.45;;;0.17;;
37787;SDS011;23627;53.302;-6.362;2022-09-03T20:21:09;0.55;;;0.25;;
37787;SDS011;23627;53.302;-6.362;2022-09-03T20:38:55;0.85;;;0.40;;
37787;SDS011;23627;53.302;-6.362;2022-09-03T21:00:46;0.40;;;0.22;;
37787;SDS011;23627;53.302;-6.362;2022-09-03T21:03:23;0.60;;;0.20;;
37787;SDS011;23627;53.302;-6.362;2022-09-03T21:14:38;1.75;;;0.20;;
37787;SDS011;23627;53.302;-6.362;2022-09-03T21:25:38;0.77;;;0.43;;
37787;SDS011;23627;53.302;-6.362;2022-09-03T21:33:39;1.45;;;0.45;;
37787;SDS011;23627;53.302;-6.362;2022-09-03T21:36:13;1.05;;;0.30;;
37787;SDS011;23627;53.302;-6.362;2022-09-03T21:44:52;2.65;;;0.40;;
37787;SDS011;23627;53.302;-6.362;2022-09-03T21:47:25;1.58;;;0.30;;
37787;SDS011;23627;53.302;-6.362;2022-09-03T23:12:50;0.82;;;0.40;;
37787;SDS011;23627;53.302;-6.362;2022-09-03T23:15:27;2.35;;;0.73;;
37787;SDS011;23627;53.302;-6.362;2022-09-03T23:18:02;1.60;;;0.50;;
37787;SDS011;23627;53.302;-6.362;2022-09-03T23:20:42;1.92;;;0.40;;
37787;SDS011;23627;53.302;-6.362;2022-09-03T23:23:24;1.52;;;0.52;;
37787;SDS011;23627;53.302;-6.362;2022-09-03T23:26:06;1.15;;;0.40;;
37787;SDS011;23627;53.302;-6.362;2022-09-03T23:28:50;3.00;;;0.80;;
37787;SDS011;23627;53.302;-6.362;2022-09-03T23:31:22;2.03;;;0.50;;
37787;SDS011;23627;53.302;-6.362;2022-09-03T23:33:51;0.85;;;0.43;;
37787;SDS011;23627;53.302;-6.362;2022-09-03T23:41:50;1.27;;;0.40;;
37787;SDS011;23627;53.302;-6.362;2022-09-03T23:44:40;0.82;;;0.40;;
37787;SDS011;23627;53.302;-6.362;2022-09-03T23:50:26;0.88;;;0.40;;
37787;SDS011;23627;53.302;-6.362;2022-09-03T23:53:13;1.50;;;0.57;;
